sensor_id;sensor_type;location;lat;lon;timestamp;P1;durP1;ratioP1;P2;durP2;ratioP2
63350;SDS011;64988;51.058;17.040;2023-03-13T00:02:24;6.28;;;4.60;;
63350;SDS011;64988;51.058;17.040;2023-03-13T00:07:52;6.32;;;4.20;;
63350;SDS011;64988;51.058;17.040;2023-03-13T00:13:19;7.50;;;4.00;;
63350;SDS011;64988;51.058;17.040;2023-03-13T00:18:47;3.55;;;3.00;;
63350;SDS011;64988;51.058;17.040;2023-03-13T00:24:16;6.70;;;3.50;;
63350;SDS011;64988;51.058;17.040;2023-03-13T00:29:43;3.85;;;3.33;;
63350;SDS011;64988;51.058;17.040;2023-03-13T00:35:11;4.43;;;2.88;;
63350;SDS011;64988;51.058;17.040;2023-03-13T00:40:39;12.57;;;4.10;;
63350;SDS011;64988;51.058;17.040;2023-03-13T00:46:07;9.60;;;3.97;;
63350;SDS011;64988;51.058;17.040;2023-03-13T00:51:36;5.72;;;3.92;;
63350;SDS011;64988;51.058;17.040;2023-03-13T00:57:03;7.80;;;4.85;;
63350;SDS011;64988;51.058;17.040;2023-03-13T01:02:31;6.10;;;3.70;;
63350;SDS011;64988;51.058;17.040;2023-03-13T01:07:59;6.07;;;3.83;;
63350;SDS011;64988;51.058;17.040;2023-03-13T01:13:27;6.80;;;3.53;;
63350;SDS011;64988;51.058;17.040;2023-03-13T01:18:58;6.97;;;3.65;;
63350;SDS011;64988;51.058;17.040;2023-03-13T01:24:27;5.95;;;3.58;;
63350;SDS011;64988;51.058;17.040;2023-03-13T01:29:55;5.15;;;3.55;;
63350;SDS011;64988;51.058;17.040;2023-03-13T01:35:23;9.13;;;4.95;;
63350;SDS011;64988;51.058;17.040;2023-03-13T01:40:51;7.18;;;4.57;;
63350;SDS011;64988;51.058;17.040;2023-03-13T01:46:19;8.18;;;5.25;;
63350;SDS011;64988;51.058;17.040;2023-03-13T01:52:29;7.80;;;5.45;;
63350;SDS011;64988;51.058;17.040;2023-03-13T01:58:18;10.85;;;7.57;;
63350;SDS011;64988;51.058;17.040;2023-03-13T02:03:47;9.65;;;5.75;;
63350;SDS011;64988;51.058;17.040;2023-03-13T02:09:19;11.00;;;6.07;;
63350;SDS011;64988;51.058;17.040;2023-03-13T02:14:51;14.73;;;7.35;;
63350;SDS011;64988;51.058;17.040;2023-03-13T02:20:19;12.77;;;7.53;;
63350;SDS011;64988;51.058;17.040;2023-03-13T02:25:50;12.70;;;7.32;;
63350;SDS011;64988;51.058;17.040;2023-03-13T02:31:24;13.20;;;8.43;;
63350;SDS011;64988;51.058;17.040;2023-03-13T02:36:51;17.00;;;8.95;;
63350;SDS011;64988;51.058;17.040;2023-03-13T02:42:19;17.15;;;8.32;;
63350;SDS011;64988;51.058;17.040;2023-03-13T02:47:49;12.88;;;7.22;;
63350;SDS011;64988;51.058;17.040;2023-03-13T02:53:17;11.00;;;7.07;;
63350;SDS011;64988;51.058;17.040;2023-03-13T02:58:45;12.63;;;7.63;;
63350;SDS011;64988;51.058;17.040;2023-03-13T03:04:24;11.55;;;6.68;;
63350;SDS011;64988;51.058;17.040;2023-03-13T03:09:54;15.40;;;7.22;;
63350;SDS011;64988;51.058;17.040;2023-03-13T03:15:22;14.90;;;8.80;;
63350;SDS011;64988;51.058;17.040;2023-03-13T03:20:51;13.38;;;8.35;;
63350;SDS011;64988;51.058;17.040;2023-03-13T03:26:18;20.05;;;9.57;;
63350;SDS011;64988;51.058;17.040;2023-03-13T03:31:45;18.63;;;10.43;;
63350;SDS011;64988;51.058;17.040;2023-03-13T03:37:13;23.67;;;10.55;;
63350;SDS011;64988;51.058;17.040;2023-03-13T03:42:41;20.55;;;11.63;;
63350;SDS011;64988;51.058;17.040;2023-03-13T03:48:08;25.05;;;12.07;;
63350;SDS011;64988;51.058;17.040;2023-03-13T03:53:35;27.58;;;12.32;;
63350;SDS011;64988;51.058;17.040;2023-03-13T03:59:03;30.30;;;13.18;;
63350;SDS011;64988;51.058;17.040;2023-03-13T04:04:40;30.63;;;12.38;;
63350;SDS011;64988;51.058;17.040;2023-03-13T04:15:43;20.77;;;10.52;;
63350;SDS011;64988;51.058;17.040;2023-03-13T04:21:11;22.30;;;11.05;;
63350;SDS011;64988;51.058;17.040;2023-03-13T04:26:46;23.33;;;11.25;;
63350;SDS011;64988;51.058;17.040;2023-03-13T04:32:14;21.50;;;10.48;;
63350;SDS011;64988;51.058;17.040;2023-03-13T04:38:02;21.67;;;10.93;;
63350;SDS011;64988;51.058;17.040;2023-03-13T04:43:48;25.20;;;11.85;;
63350;SDS011;64988;51.058;17.040;2023-03-13T04:49:28;19.05;;;10.35;;
63350;SDS011;64988;51.058;17.040;2023-03-13T04:55:14;22.17;;;11.77;;
63350;SDS011;64988;51.058;17.040;2023-03-13T05:00:42;22.65;;;11.32;;
63350;SDS011;64988;51.058;17.040;2023-03-13T05:06:48;27.90;;;12.63;;
63350;SDS011;64988;51.058;17.040;2023-03-13T05:12:42;27.45;;;11.32;;
63350;SDS011;64988;51.058;17.040;2023-03-13T05:18:27;22.95;;;11.88;;
63350;SDS011;64988;51.058;17.040;2023-03-13T05:24:27;25.80;;;11.75;;
63350;SDS011;64988;51.058;17.040;2023-03-13T05:30:18;25.85;;;11.80;;
63350;SDS011;64988;51.058;17.040;2023-03-13T05:36:04;28.58;;;11.27;;
63350;SDS011;64988;51.058;17.040;2023-03-13T05:42:03;26.40;;;11.30;;
63350;SDS011;64988;51.058;17.040;2023-03-13T05:47:52;28.02;;;11.60;;
63350;SDS011;64988;51.058;17.040;2023-03-13T05:53:38;25.95;;;11.40;;
63350;SDS011;64988;51.058;17.040;2023-03-13T05:59:38;25.85;;;11.13;;
63350;SDS011;64988;51.058;17.040;2023-03-13T06:05:24;24.10;;;11.75;;
63350;SDS011;64988;51.058;17.040;2023-03-13T06:10:51;23.65;;;11.32;;
63350;SDS011;64988;51.058;17.040;2023-03-13T06:16:18;25.70;;;12.45;;
63350;SDS011;64988;51.058;17.040;2023-03-13T06:21:47;29.45;;;12.27;;
63350;SDS011;64988;51.058;17.040;2023-03-13T06:27:15;22.27;;;11.38;;
63350;SDS011;64988;51.058;17.040;2023-03-13T06:32:43;26.92;;;11.77;;
63350;SDS011;64988;51.058;17.040;2023-03-13T06:38:11;18.27;;;10.00;;
63350;SDS011;64988;51.058;17.040;2023-03-13T06:43:40;24.98;;;10.52;;
63350;SDS011;64988;51.058;17.040;2023-03-13T06:49:07;15.32;;;8.68;;
63350;SDS011;64988;51.058;17.040;2023-03-13T06:54:35;23.33;;;9.48;;
63350;SDS011;64988;51.058;17.040;2023-03-13T07:00:03;14.90;;;8.90;;
63350;SDS011;64988;51.058;17.040;2023-03-13T07:05:31;18.45;;;8.85;;
63350;SDS011;64988;51.058;17.040;2023-03-13T07:11:02;14.65;;;8.18;;
63350;SDS011;64988;51.058;17.040;2023-03-13T07:16:32;17.30;;;8.48;;
63350;SDS011;64988;51.058;17.040;2023-03-13T07:22:00;12.82;;;6.93;;
63350;SDS011;64988;51.058;17.040;2023-03-13T07:27:28;14.98;;;7.25;;
63350;SDS011;64988;51.058;17.040;2023-03-13T07:32:57;15.55;;;6.60;;
63350;SDS011;64988;51.058;17.040;2023-03-13T07:38:25;16.20;;;6.95;;
63350;SDS011;64988;51.058;17.040;2023-03-13T07:43:53;13.65;;;5.90;;
63350;SDS011;64988;51.058;17.040;2023-03-13T07:49:20;11.68;;;6.63;;
63350;SDS011;64988;51.058;17.040;2023-03-13T07:54:48;12.10;;;6.53;;
63350;SDS011;64988;51.058;17.040;2023-03-13T08:00:16;11.40;;;5.47;;
63350;SDS011;64988;51.058;17.040;2023-03-13T08:05:45;16.02;;;6.35;;
63350;SDS011;64988;51.058;17.040;2023-03-13T08:11:17;20.17;;;5.93;;
63350;SDS011;64988;51.058;17.040;2023-03-13T08:16:50;13.43;;;6.03;;
63350;SDS011;64988;51.058;17.040;2023-03-13T08:22:18;14.43;;;5.25;;
63350;SDS011;64988;51.058;17.040;2023-03-13T08:27:45;10.70;;;4.30;;
63350;SDS011;64988;51.058;17.040;2023-03-13T08:33:12;10.98;;;5.20;;
63350;SDS011;64988;51.058;17.040;2023-03-13T08:38:39;13.60;;;4.80;;
63350;SDS011;64988;51.058;17.040;2023-03-13T08:44:13;10.63;;;4.70;;
63350;SDS011;64988;51.058;17.040;2023-03-13T08:49:42;14.32;;;4.60;;
63350;SDS011;64988;51.058;17.040;2023-03-13T08:55:10;9.88;;;4.18;;
63350;SDS011;64988;51.058;17.040;2023-03-13T09:00:38;10.77;;;4.35;;
63350;SDS011;64988;51.058;17.040;2023-03-13T09:06:06;12.23;;;4.50;;
63350;SDS011;64988;51.058;17.040;2023-03-13T09:11:36;12.52;;;3.90;;
63350;SDS011;64988;51.058;17.040;2023-03-13T09:17:05;11.23;;;3.70;;
63350;SDS011;64988;51.058;17.040;2023-03-13T09:22:34;6.30;;;3.20;;
63350;SDS011;64988;51.058;17.040;2023-03-13T09:28:02;11.05;;;2.72;;
63350;SDS011;64988;51.058;17.040;2023-03-13T09:33:29;13.50;;;4.30;;
63350;SDS011;64988;51.058;17.040;2023-03-13T09:38:57;9.35;;;3.67;;
63350;SDS011;64988;51.058;17.040;2023-03-13T09:44:27;11.50;;;3.50;;
63350;SDS011;64988;51.058;17.040;2023-03-13T09:50:04;10.40;;;3.13;;
63350;SDS011;64988;51.058;17.040;2023-03-13T09:55:41;10.30;;;3.53;;
63350;SDS011;64988;51.058;17.040;2023-03-13T10:01:11;14.40;;;4.45;;
63350;SDS011;64988;51.058;17.040;2023-03-13T10:06:43;10.00;;;3.63;;
63350;SDS011;64988;51.058;17.040;2023-03-13T10:12:19;8.65;;;3.35;;
63350;SDS011;64988;51.058;17.040;2023-03-13T10:17:53;12.68;;;3.60;;
63350;SDS011;64988;51.058;17.040;2023-03-13T10:23:26;8.15;;;3.40;;
63350;SDS011;64988;51.058;17.040;2023-03-13T10:29:22;10.02;;;3.20;;
63350;SDS011;64988;51.058;17.040;2023-03-13T10:45:53;13.27;;;4.32;;
63350;SDS011;64988;51.058;17.040;2023-03-13T10:51:22;8.50;;;2.55;;
63350;SDS011;64988;51.058;17.040;2023-03-13T11:02:56;10.73;;;2.95;;
63350;SDS011;64988;51.058;17.040;2023-03-13T11:08:25;14.15;;;3.17;;
63350;SDS011;64988;51.058;17.040;2023-03-13T11:13:54;11.95;;;3.42;;
63350;SDS011;64988;51.058;17.040;2023-03-13T11:25:28;10.25;;;4.43;;
63350;SDS011;64988;51.058;17.040;2023-03-13T11:31:12;15.10;;;4.33;;
63350;SDS011;64988;51.058;17.040;2023-03-13T11:47:59;11.40;;;3.92;;
63350;SDS011;64988;51.058;17.040;2023-03-13T11:59:21;11.77;;;4.38;;
63350;SDS011;64988;51.058;17.040;2023-03-13T12:05:02;16.88;;;4.60;;
63350;SDS011;64988;51.058;17.040;2023-03-13T12:10:36;11.80;;;3.70;;
63350;SDS011;64988;51.058;17.040;2023-03-13T12:16:15;8.98;;;4.25;;
63350;SDS011;64988;51.058;17.040;2023-03-13T12:21:49;9.57;;;3.50;;
63350;SDS011;64988;51.058;17.040;2023-03-13T12:27:30;3.90;;;2.47;;
63350;SDS011;64988;51.058;17.040;2023-03-13T12:33:22;4.40;;;1.77;;
63350;SDS011;64988;51.058;17.040;2023-03-13T12:39:14;5.15;;;1.75;;
63350;SDS011;64988;51.058;17.040;2023-03-13T12:44:55;4.05;;;1.92;;
63350;SDS011;64988;51.058;17.040;2023-03-13T13:01:57;3.08;;;1.80;;
63350;SDS011;64988;51.058;17.040;2023-03-13T13:07:26;7.22;;;3.20;;
63350;SDS011;64988;51.058;17.040;2023-03-13T13:13:44;4.15;;;2.05;;
63350;SDS011;64988;51.058;17.040;2023-03-13T13:19:20;5.75;;;2.72;;
63350;SDS011;64988;51.058;17.040;2023-03-13T13:24:51;2.75;;;2.28;;
63350;SDS011;64988;51.058;17.040;2023-03-13T13:41:46;5.90;;;3.28;;
63350;SDS011;64988;51.058;17.040;2023-03-13T13:47:20;5.10;;;3.08;;
63350;SDS011;64988;51.058;17.040;2023-03-13T13:52:51;5.00;;;3.03;;
63350;SDS011;64988;51.058;17.040;2023-03-13T13:58:20;10.27;;;3.53;;
63350;SDS011;64988;51.058;17.040;2023-03-13T14:03:52;6.72;;;3.22;;
63350;SDS011;64988;51.058;17.040;2023-03-13T14:15:13;5.72;;;3.30;;
63350;SDS011;64988;51.058;17.040;2023-03-13T14:26:23;7.93;;;3.60;;
63350;SDS011;64988;51.058;17.040;2023-03-13T14:31:55;10.35;;;3.08;;
63350;SDS011;64988;51.058;17.040;2023-03-13T14:37:35;4.85;;;3.08;;
63350;SDS011;64988;51.058;17.040;2023-03-13T14:43:04;7.03;;;3.10;;
63350;SDS011;64988;51.058;17.040;2023-03-13T14:48:46;7.50;;;3.58;;
63350;SDS011;64988;51.058;17.040;2023-03-13T14:54:26;6.65;;;3.03;;
63350;SDS011;64988;51.058;17.040;2023-03-13T15:06:12;7.45;;;3.40;;
63350;SDS011;64988;51.058;17.040;2023-03-13T15:11:57;6.15;;;3.15;;
63350;SDS011;64988;51.058;17.040;2023-03-13T15:17:26;5.23;;;3.10;;
63350;SDS011;64988;51.058;17.040;2023-03-13T15:22:56;6.25;;;2.50;;
63350;SDS011;64988;51.058;17.040;2023-03-13T15:28:25;5.13;;;2.70;;
63350;SDS011;64988;51.058;17.040;2023-03-13T15:33:56;7.53;;;2.95;;
63350;SDS011;64988;51.058;17.040;2023-03-13T15:39:27;7.72;;;3.47;;
63350;SDS011;64988;51.058;17.040;2023-03-13T15:44:55;6.20;;;3.38;;
63350;SDS011;64988;51.058;17.040;2023-03-13T15:50:22;11.10;;;4.25;;
63350;SDS011;64988;51.058;17.040;2023-03-13T15:55:56;10.13;;;3.80;;
63350;SDS011;64988;51.058;17.040;2023-03-13T16:01:26;9.00;;;3.83;;
63350;SDS011;64988;51.058;17.040;2023-03-13T16:06:54;5.10;;;3.42;;
63350;SDS011;64988;51.058;17.040;2023-03-13T16:12:22;6.45;;;3.10;;
63350;SDS011;64988;51.058;17.040;2023-03-13T16:17:50;5.57;;;3.20;;
63350;SDS011;64988;51.058;17.040;2023-03-13T16:23:18;5.35;;;3.90;;
63350;SDS011;64988;51.058;17.040;2023-03-13T16:28:46;10.57;;;4.63;;
63350;SDS011;64988;51.058;17.040;2023-03-13T16:34:14;7.88;;;4.22;;
63350;SDS011;64988;51.058;17.040;2023-03-13T16:39:44;7.38;;;4.00;;
63350;SDS011;64988;51.058;17.040;2023-03-13T16:45:14;10.75;;;4.60;;
63350;SDS011;64988;51.058;17.040;2023-03-13T16:50:41;12.30;;;5.25;;
63350;SDS011;64988;51.058;17.040;2023-03-13T16:56:15;11.57;;;5.65;;
63350;SDS011;64988;51.058;17.040;2023-03-13T17:01:59;9.65;;;4.20;;
63350;SDS011;64988;51.058;17.040;2023-03-13T17:07:27;10.35;;;4.45;;
63350;SDS011;64988;51.058;17.040;2023-03-13T17:12:55;6.47;;;3.70;;
63350;SDS011;64988;51.058;17.040;2023-03-13T17:18:23;4.25;;;2.70;;
63350;SDS011;64988;51.058;17.040;2023-03-13T17:23:51;5.18;;;3.53;;
63350;SDS011;64988;51.058;17.040;2023-03-13T17:29:19;7.72;;;3.58;;
63350;SDS011;64988;51.058;17.040;2023-03-13T17:34:48;7.07;;;3.80;;
63350;SDS011;64988;51.058;17.040;2023-03-13T17:40:19;7.22;;;3.60;;
63350;SDS011;64988;51.058;17.040;2023-03-13T17:45:48;7.03;;;4.20;;
63350;SDS011;64988;51.058;17.040;2023-03-13T17:51:22;7.38;;;4.20;;
63350;SDS011;64988;51.058;17.040;2023-03-13T17:56:51;6.70;;;3.10;;
63350;SDS011;64988;51.058;17.040;2023-03-13T18:02:20;7.88;;;3.42;;
63350;SDS011;64988;51.058;17.040;2023-03-13T18:07:48;9.90;;;4.60;;
63350;SDS011;64988;51.058;17.040;2023-03-13T18:13:16;7.15;;;4.20;;
63350;SDS011;64988;51.058;17.040;2023-03-13T18:18:44;13.68;;;5.78;;
63350;SDS011;64988;51.058;17.040;2023-03-13T18:24:13;13.00;;;5.57;;
63350;SDS011;64988;51.058;17.040;2023-03-13T18:29:42;9.48;;;5.18;;
63350;SDS011;64988;51.058;17.040;2023-03-13T18:35:10;8.80;;;4.25;;
63350;SDS011;64988;51.058;17.040;2023-03-13T18:40:39;6.50;;;4.18;;
63350;SDS011;64988;51.058;17.040;2023-03-13T18:46:17;8.63;;;4.30;;
63350;SDS011;64988;51.058;17.040;2023-03-13T18:51:53;9.63;;;4.88;;
63350;SDS011;64988;51.058;17.040;2023-03-13T18:57:21;12.18;;;5.10;;
63350;SDS011;64988;51.058;17.040;2023-03-13T19:02:48;9.70;;;5.35;;
63350;SDS011;64988;51.058;17.040;2023-03-13T19:08:17;11.07;;;5.65;;
63350;SDS011;64988;51.058;17.040;2023-03-13T19:13:46;10.52;;;5.63;;
63350;SDS011;64988;51.058;17.040;2023-03-13T19:19:14;13.77;;;5.22;;
63350;SDS011;64988;51.058;17.040;2023-03-13T19:24:44;13.05;;;6.43;;
63350;SDS011;64988;51.058;17.040;2023-03-13T19:30:15;11.18;;;5.82;;
63350;SDS011;64988;51.058;17.040;2023-03-13T19:35:48;9.90;;;6.07;;
63350;SDS011;64988;51.058;17.040;2023-03-13T19:41:19;9.65;;;5.80;;
63350;SDS011;64988;51.058;17.040;2023-03-13T19:46:47;12.95;;;5.47;;
63350;SDS011;64988;51.058;17.040;2023-03-13T19:52:15;10.13;;;4.75;;
63350;SDS011;64988;51.058;17.040;2023-03-13T19:57:42;10.68;;;5.57;;
63350;SDS011;64988;51.058;17.040;2023-03-13T20:03:10;9.68;;;5.38;;
63350;SDS011;64988;51.058;17.040;2023-03-13T20:08:38;12.73;;;5.60;;
63350;SDS011;64988;51.058;17.040;2023-03-13T20:14:05;8.88;;;5.57;;
63350;SDS011;64988;51.058;17.040;2023-03-13T20:19:34;10.45;;;4.85;;
63350;SDS011;64988;51.058;17.040;2023-03-13T20:25:02;7.20;;;4.72;;
63350;SDS011;64988;51.058;17.040;2023-03-13T20:30:30;9.00;;;4.60;;
63350;SDS011;64988;51.058;17.040;2023-03-13T20:36:03;8.23;;;4.72;;
63350;SDS011;64988;51.058;17.040;2023-03-13T20:41:34;10.07;;;4.55;;
63350;SDS011;64988;51.058;17.040;2023-03-13T20:47:02;10.27;;;5.13;;
63350;SDS011;64988;51.058;17.040;2023-03-13T20:52:30;9.60;;;5.05;;
63350;SDS011;64988;51.058;17.040;2023-03-13T20:57:57;7.63;;;4.90;;
63350;SDS011;64988;51.058;17.040;2023-03-13T21:03:26;9.88;;;4.75;;
63350;SDS011;64988;51.058;17.040;2023-03-13T21:08:56;9.40;;;4.97;;
63350;SDS011;64988;51.058;17.040;2023-03-13T21:14:23;8.82;;;4.75;;
63350;SDS011;64988;51.058;17.040;2023-03-13T21:19:51;9.48;;;4.65;;
63350;SDS011;64988;51.058;17.040;2023-03-13T21:25:18;13.73;;;5.50;;
63350;SDS011;64988;51.058;17.040;2023-03-13T21:30:46;11.52;;;5.68;;
63350;SDS011;64988;51.058;17.040;2023-03-13T21:36:15;8.15;;;5.03;;
63350;SDS011;64988;51.058;17.040;2023-03-13T21:41:46;14.20;;;5.32;;
63350;SDS011;64988;51.058;17.040;2023-03-13T21:47:13;6.63;;;4.13;;
63350;SDS011;64988;51.058;17.040;2023-03-13T21:52:50;12.60;;;4.93;;
63350;SDS011;64988;51.058;17.040;2023-03-13T21:58:17;10.23;;;4.95;;
63350;SDS011;64988;51.058;17.040;2023-03-13T22:03:45;11.40;;;6.25;;
63350;SDS011;64988;51.058;17.040;2023-03-13T22:09:12;10.40;;;6.00;;
63350;SDS011;64988;51.058;17.040;2023-03-13T22:14:40;10.35;;;5.40;;
63350;SDS011;64988;51.058;17.040;2023-03-13T22:20:09;14.40;;;5.75;;
63350;SDS011;64988;51.058;17.040;2023-03-13T22:25:38;10.82;;;6.05;;
63350;SDS011;64988;51.058;17.040;2023-03-13T22:31:06;11.48;;;5.85;;
63350;SDS011;64988;51.058;17.040;2023-03-13T22:36:36;9.23;;;5.15;;
63350;SDS011;64988;51.058;17.040;2023-03-13T22:42:04;9.55;;;5.22;;
63350;SDS011;64988;51.058;17.040;2023-03-13T22:47:33;9.90;;;5.35;;
63350;SDS011;64988;51.058;17.040;2023-03-13T22:53:01;10.02;;;5.18;;
63350;SDS011;64988;51.058;17.040;2023-03-13T22:58:29;12.82;;;6.07;;
63350;SDS011;64988;51.058;17.040;2023-03-13T23:03:57;9.63;;;5.85;;
63350;SDS011;64988;51.058;17.040;2023-03-13T23:09:25;9.15;;;5.78;;
63350;SDS011;64988;51.058;17.040;2023-03-13T23:14:52;9.50;;;6.05;;
63350;SDS011;64988;51.058;17.040;2023-03-13T23:20:21;8.38;;;5.20;;
63350;SDS011;64988;51.058;17.040;2023-03-13T23:25:48;15.48;;;6.13;;
63350;SDS011;64988;51.058;17.040;2023-03-13T23:31:19;10.40;;;5.72;;
63350;SDS011;64988;51.058;17.040;2023-03-13T23:36:48;9.60;;;5.80;;
63350;SDS011;64988;51.058;17.040;2023-03-13T23:42:17;8.88;;;5.95;;
63350;SDS011;64988;51.058;17.040;2023-03-13T23:47:44;10.13;;;6.20;;
63350;SDS011;64988;51.058;17.040;2023-03-13T23:53:13;13.40;;;7.55;;
63350;SDS011;64988;51.058;17.040;2023-03-13T23:58:40;11.18;;;6.32;;
